Time;durP1;ratioP1;P1;durP2;ratioP2;P2;SDS_P1;SDS_P2;PMS_P1;PMS_P2;Temp;Humidity;BMP_temperature;BMP_pressure;BME280_temperature;BME280_humidity;BME280_pressure;Samples;Min_cycle;Max_cycle;Signal;HPM_P1;HPM_P2
2021/11/22 00:02:23;;;;;;;133.50;56.13;;;;;;;3.13;65.56;95260.69;5007579;28;20025;-79
2021/11/22 00:04:49;;;;;;;117.13;55.97;;;;;;;2.85;65.61;95252.53;5006499;28;20030;-79
2021/11/22 00:07:16;;;;;;;107.40;51.13;;;;;;;2.87;65.76;95255.84;5006690;28;20476;-79
2021/11/22 00:09:42;;;;;;;115.28;53.13;;;;;;;2.77;65.18;95262.94;5007067;28;20527;-79
2021/11/22 00:12:08;;;;;;;112.28;51.92;;;;;;;2.68;65.53;95268.06;5006668;28;20038;-79
2021/11/22 00:14:33;;;;;;;101.20;50.83;;;;;;;2.48;66.05;95269.78;5007753;28;20038;-79
2021/11/22 00:16:59;;;;;;;109.13;52.15;;;;;;;2.27;66.61;95260.03;5006837;28;20096;-79
2021/11/22 00:19:24;;;;;;;104.63;52.05;;;;;;;2.33;66.31;95259.53;5007641;28;20514;-79
2021/11/22 00:21:50;;;;;;;114.80;54.20;;;;;;;2.18;66.90;95247.56;5006908;28;20028;-78
2021/11/22 00:24:15;;;;;;;133.38;60.05;;;;;;;2.14;66.69;95252.31;5007021;28;20042;-79
2021/11/22 00:26:41;;;;;;;120.53;53.38;;;;;;;2.09;67.26;95259.78;5006448;28;20026;-79
2021/11/22 00:29:06;;;;;;;125.85;57.17;;;;;;;2.08;66.59;95266.88;5006689;28;20141;-80
2021/11/22 00:31:33;;;;;;;128.77;59.95;;;;;;;2.12;66.45;95274.53;5006842;28;20528;-79
2021/11/22 00:33:58;;;;;;;122.82;56.92;;;;;;;2.15;66.48;95266.34;5006644;28;20042;-78
2021/11/22 00:36:24;;;;;;;129.55;61.88;;;;;;;1.90;68.30;95260.47;5007360;28;20030;-80
2021/11/22 00:38:50;;;;;;;125.53;59.65;;;;;;;1.85;69.00;95268.78;4988802;28;20026;-79
2021/11/22 00:41:15;;;;;;;124.47;59.55;;;;;;;1.60;69.79;95270.78;5005602;28;20521;-78
2021/11/22 00:43:40;;;;;;;113.93;54.50;;;;;;;1.60;69.24;95266.34;5004834;28;20026;-80
2021/11/22 00:46:07;;;;;;;112.65;53.35;;;;;;;1.70;69.27;95270.88;5006748;28;20030;-79
2021/11/22 00:48:34;;;;;;;113.70;56.20;;;;;;;1.74;69.10;95269.69;5006540;28;20394;-79
2021/11/22 00:51:00;;;;;;;119.10;56.45;;;;;;;1.70;69.40;95265.59;5006379;28;20435;-80
2021/11/22 00:53:25;;;;;;;106.75;54.05;;;;;;;1.68;69.99;95270.16;5007142;28;20041;-79
2021/11/22 00:55:51;;;;;;;107.15;50.63;;;;;;;1.61;70.30;95272.50;5005496;28;20076;-79
2021/11/22 00:58:16;;;;;;;104.20;48.63;;;;;;;1.64;71.13;95260.81;5007523;28;20033;-79
2021/11/22 01:00:41;;;;;;;80.22;42.08;;;;;;;1.77;70.96;95264.16;5006128;28;20084;-78
2021/11/22 01:03:07;;;;;;;76.38;40.45;;;;;;;1.83;71.29;95268.06;5004619;28;20032;-78
2021/11/22 01:05:32;;;;;;;88.43;42.75;;;;;;;1.87;71.10;95268.66;5008527;28;20037;-78
2021/11/22 01:07:58;;;;;;;92.22;44.30;;;;;;;1.83;70.06;95263.63;5009597;28;20094;-77
2021/11/22 01:10:23;;;;;;;89.25;43.22;;;;;;;1.85;69.00;95274.09;5009151;28;20014;-78
2021/11/22 01:12:49;;;;;;;92.25;45.17;;;;;;;1.80;68.62;95271.81;5007712;28;20022;-78
2021/11/22 01:15:18;;;;;;;81.32;43.75;;;;;;;1.79;69.55;95261.38;5010577;28;20038;-78
2021/11/22 01:17:43;;;;;;;89.70;43.92;;;;;;;1.77;69.37;95261.50;5007827;28;20493;-79
2021/11/22 01:20:11;;;;;;;91.20;45.30;;;;;;;1.78;68.49;95262.31;5010984;28;20030;-79
2021/11/22 01:22:39;;;;;;;83.63;42.58;;;;;;;1.79;68.44;95264.84;5010035;28;20060;-79
2021/11/22 01:25:06;;;;;;;95.75;45.83;;;;;;;1.62;69.07;95260.09;5010412;28;20029;-79
2021/11/22 01:27:31;;;;;;;95.30;43.75;;;;;;;1.65;67.42;95262.47;5010170;28;20105;-78
2021/11/22 01:29:57;;;;;;;88.97;43.85;;;;;;;1.63;66.70;95262.63;5009918;28;20060;-79
2021/11/22 01:32:22;;;;;;;83.63;42.58;;;;;;;1.67;66.97;95258.78;5009048;28;20054;-78
2021/11/22 01:34:48;;;;;;;92.75;43.97;;;;;;;1.67;67.00;95273.78;5008993;28;20088;-79
2021/11/22 01:37:13;;;;;;;78.78;39.90;;;;;;;1.59;66.22;95275.25;5010734;28;20033;-78
2021/11/22 01:39:39;;;;;;;70.75;38.65;;;;;;;1.57;65.83;95269.25;5009259;28;20358;-79
2021/11/22 01:42:04;;;;;;;91.93;41.20;;;;;;;1.58;64.88;95268.28;5010474;28;20029;-79
2021/11/22 01:44:30;;;;;;;80.65;40.50;;;;;;;1.43;65.43;95269.53;5009860;28;20014;-79
2021/11/22 01:46:55;;;;;;;81.97;40.72;;;;;;;1.46;65.47;95264.84;5009606;28;20460;-80
2021/11/22 01:49:21;;;;;;;88.45;41.63;;;;;;;1.55;65.29;95267.69;5010008;28;20060;-79
2021/11/22 01:51:46;;;;;;;77.90;39.67;;;;;;;1.42;65.74;95267.88;5008788;28;20037;-80
2021/11/22 01:54:12;;;;;;;89.65;41.50;;;;;;;1.46;65.07;95264.00;5008361;28;20112;-79
2021/11/22 01:56:38;;;;;;;84.97;41.03;;;;;;;1.32;65.94;95260.66;5009102;28;20053;-78
2021/11/22 01:59:03;;;;;;;90.95;42.63;;;;;;;1.31;66.10;95266.91;5010145;28;20469;-79
2021/11/22 02:01:29;;;;;;;90.47;43.40;;;;;;;1.26;65.93;95262.97;5008066;28;20079;-80
2021/11/22 02:03:54;;;;;;;94.30;43.00;;;;;;;1.22;66.35;95257.94;5009437;28;20448;-79
2021/11/22 02:06:20;;;;;;;85.15;41.50;;;;;;;1.09;67.08;95257.25;5009552;28;20049;-79
2021/11/22 02:08:45;;;;;;;85.53;41.90;;;;;;;1.03;67.41;95248.00;5008458;28;20052;-79
2021/11/22 02:11:12;;;;;;;81.35;41.38;;;;;;;1.13;66.74;95249.91;5009483;28;20025;-79
2021/11/22 02:13:37;;;;;;;84.45;42.30;;;;;;;1.10;66.85;95259.75;5009083;28;20109;-79
2021/11/22 02:16:03;;;;;;;90.03;44.15;;;;;;;1.06;66.70;95266.25;5008542;28;20121;-79
2021/11/22 02:18:29;;;;;;;87.03;41.53;;;;;;;1.10;67.32;95259.75;5008822;28;20442;-79
2021/11/22 02:20:54;;;;;;;83.90;41.40;;;;;;;1.03;67.54;95261.19;5009522;28;20034;-78
2021/11/22 02:23:20;;;;;;;89.68;41.65;;;;;;;1.07;66.84;95259.16;5008699;28;20049;-78
2021/11/22 02:25:45;;;;;;;89.68;41.15;;;;;;;0.96;67.18;95249.44;5008846;28;20030;-78
2021/11/22 02:28:11;;;;;;;91.25;41.90;;;;;;;0.88;67.27;95244.78;5009341;28;20045;-78
2021/11/22 02:30:39;;;;;;;80.85;40.80;;;;;;;0.64;68.25;95251.03;5008693;28;20113;-78
2021/11/22 02:33:09;;;;;;;85.85;41.17;;;;;;;0.75;67.94;95244.91;5007590;28;20049;-78
2021/11/22 02:35:36;;;;;;;86.53;41.13;;;;;;;0.86;67.71;95255.47;5008513;28;20038;-79
2021/11/22 02:38:02;;;;;;;80.22;38.45;;;;;;;0.89;66.70;95253.56;5009332;28;20030;-78
2021/11/22 02:40:27;;;;;;;83.47;39.70;;;;;;;0.77;66.80;95245.63;5008432;28;20048;-78
2021/11/22 02:42:53;;;;;;;84.43;42.40;;;;;;;0.74;67.36;95251.97;5008798;28;20041;-79
2021/11/22 02:45:19;;;;;;;82.63;39.47;;;;;;;0.74;67.11;95246.69;5008938;28;20034;-78
2021/11/22 02:47:47;;;;;;;85.00;41.38;;;;;;;0.74;67.74;95243.25;5008648;28;20071;-78
2021/11/22 02:50:12;;;;;;;76.15;41.10;;;;;;;0.76;66.50;95241.28;5008650;28;20638;-78
2021/11/22 02:52:41;;;;;;;84.50;41.92;;;;;;;0.69;67.49;95240.13;5008534;28;20468;-78
2021/11/22 02:55:08;;;;;;;74.28;38.50;;;;;;;0.69;66.85;95246.25;5009224;28;20038;-78
2021/11/22 02:57:33;;;;;;;76.78;37.40;;;;;;;0.72;66.73;95245.16;5007985;28;20030;-78
2021/11/22 02:59:59;;;;;;;79.78;36.70;;;;;;;0.68;66.71;95241.91;5008816;28;20084;-78
2021/11/22 03:02:24;;;;;;;71.93;36.20;;;;;;;0.64;66.58;95240.47;5007130;28;20026;-78
2021/11/22 03:04:50;;;;;;;78.47;38.47;;;;;;;0.58;67.01;95238.31;5008650;28;20477;-78
2021/11/22 03:07:15;;;;;;;72.47;38.10;;;;;;;0.56;66.62;95254.28;5008225;28;20447;-78
2021/11/22 03:09:41;;;;;;;74.03;37.42;;;;;;;0.60;66.97;95247.78;5007692;28;20037;-78
2021/11/22 03:12:09;;;;;;;67.57;37.65;;;;;;;0.65;65.96;95246.56;5008489;28;20389;-78
2021/11/22 03:14:34;;;;;;;71.75;38.65;;;;;;;0.63;66.10;95251.16;5007883;28;20095;-79
2021/11/22 03:17:00;;;;;;;75.20;39.28;;;;;;;0.61;66.70;95249.47;5008800;28;20022;-79
2021/11/22 03:19:25;;;;;;;89.88;42.45;;;;;;;0.60;66.02;95246.94;5008061;28;20022;-78
2021/11/22 03:21:51;;;;;;;80.78;42.20;;;;;;;0.48;67.06;95260.13;5008734;28;20435;-79
2021/11/22 03:24:16;;;;;;;80.75;40.42;;;;;;;0.49;66.76;95259.19;5007538;28;20033;-78
2021/11/22 03:26:42;;;;;;;83.32;42.30;;;;;;;0.44;66.91;95257.84;5006631;28;20022;-78
2021/11/22 03:29:08;;;;;;;86.40;42.05;;;;;;;0.45;66.59;95264.81;5007783;28;20018;-79
2021/11/22 03:31:33;;;;;;;85.35;40.15;;;;;;;0.39;68.08;95258.22;5007762;28;20029;-79
2021/11/22 03:34:00;;;;;;;83.07;40.40;;;;;;;0.44;67.69;95265.75;5008220;28;20597;-78
2021/11/22 03:36:25;;;;;;;80.72;41.78;;;;;;;0.34;67.18;95263.00;5006089;28;20034;-78
2021/11/22 03:38:51;;;;;;;88.10;41.78;;;;;;;0.34;67.63;95258.56;5008153;28;20591;-79
2021/11/22 03:41:18;;;;;;;92.50;43.78;;;;;;;0.40;68.57;95264.34;5007130;28;20037;-79
2021/11/22 03:43:55;;;;;;;93.28;42.60;;;;;;;0.32;67.55;95259.66;5007648;28;20435;-78
2021/11/22 03:46:20;;;;;;;94.95;44.67;;;;;;;0.20;67.91;95259.63;5006341;28;20156;-79
2021/11/22 03:48:46;;;;;;;91.20;42.22;;;;;;;0.22;68.44;95254.25;5007372;28;20117;-78
2021/11/22 03:51:12;;;;;;;88.38;44.50;;;;;;;-0.08;69.72;95269.63;5007299;28;20030;-79
2021/11/22 03:53:38;;;;;;;92.18;42.53;;;;;;;0.01;69.36;95273.38;4989272;28;20044;-77
2021/11/22 03:56:03;;;;;;;90.93;41.65;;;;;;;0.13;69.18;95261.03;5007053;28;20030;-78
2021/11/22 03:58:29;;;;;;;90.28;43.00;;;;;;;0.18;68.73;95266.00;5005919;28;20045;-78
2021/11/22 04:00:54;;;;;;;94.72;42.40;;;;;;;0.06;69.34;95279.16;5008077;28;20033;-78
2021/11/22 04:03:20;;;;;;;83.18;39.45;;;;;;;0.11;69.49;95274.34;5007408;28;20044;-78
2021/11/22 04:05:45;;;;;;;85.65;42.30;;;;;;;0.00;70.30;95282.25;5007680;28;20038;-78
2021/11/22 04:08:11;;;;;;;77.82;38.88;;;;;;;0.05;70.51;95285.38;5007076;28;20501;-78
2021/11/22 04:10:37;;;;;;;80.28;37.88;;;;;;;0.05;70.08;95285.38;5006751;28;20034;-78
2021/11/22 04:13:03;;;;;;;73.53;38.08;;;;;;;0.09;70.34;95281.56;5006227;28;20029;-80
2021/11/22 04:15:28;;;;;;;77.10;36.58;;;;;;;0.02;71.08;95284.78;5005535;28;20048;-79
2021/11/22 04:17:54;;;;;;;77.70;36.67;;;;;;;-0.02;71.08;95286.78;5007760;28;20484;-80
2021/11/22 04:20:19;;;;;;;79.43;35.92;;;;;;;-0.04;72.30;95289.53;5006390;28;20440;-79
2021/11/22 04:22:45;;;;;;;77.20;35.97;;;;;;;-0.04;72.60;95286.06;5007684;28;20025;-80
2021/11/22 04:25:10;;;;;;;80.90;36.05;;;;;;;0.03;72.57;95275.91;5005895;28;20076;-79
2021/11/22 04:27:36;;;;;;;78.85;36.80;;;;;;;0.08;72.91;95274.59;5006821;28;20088;-79
2021/11/22 04:30:04;;;;;;;89.72;37.95;;;;;;;0.10;72.79;95274.47;5007480;28;20062;-79
2021/11/22 04:32:29;;;;;;;77.15;35.08;;;;;;;0.23;72.64;95272.59;5006880;28;20084;-79
2021/11/22 04:34:54;;;;;;;79.57;36.67;;;;;;;0.32;72.26;95286.03;5008197;28;20487;-80
2021/11/22 04:37:21;;;;;;;84.10;37.05;;;;;;;0.19;72.37;95294.03;5008408;28;20037;-79
2021/11/22 04:39:47;;;;;;;88.35;38.45;;;;;;;0.21;72.58;95289.50;5008988;28;20460;-80
2021/11/22 04:42:12;;;;;;;95.72;39.75;;;;;;;0.20;72.46;95293.94;5005698;28;20022;-75
2021/11/22 04:44:37;;;;;;;78.28;37.70;;;;;;;0.23;72.74;95292.84;5006839;28;20049;-75
2021/11/22 04:47:09;;;;;;;79.00;36.60;;;;;;;0.30;72.93;95307.25;5006381;28;20022;-75
2021/11/22 04:49:34;;;;;;;86.93;37.45;;;;;;;0.30;72.63;95301.13;4993517;28;20037;-76
2021/11/22 04:52:00;;;;;;;100.25;38.58;;;;;;;0.31;72.66;95300.16;5005884;28;20087;-75
2021/11/22 04:54:25;;;;;;;96.00;38.67;;;;;;;0.30;72.82;95309.06;5005899;28;20455;-79
2021/11/22 04:56:51;;;;;;;99.20;38.30;;;;;;;0.39;72.66;95302.25;5006999;28;20022;-79
2021/11/22 04:59:16;;;;;;;91.97;35.28;;;;;;;0.32;72.98;95305.31;5005614;28;20048;-78
2021/11/22 05:01:42;;;;;;;78.80;33.00;;;;;;;0.38;72.31;95305.81;5007728;28;20026;-77
2021/11/22 05:04:07;;;;;;;74.28;32.58;;;;;;;0.28;72.48;95305.69;5007114;28;20053;-78
2021/11/22 05:06:32;;;;;;;77.40;32.17;;;;;;;0.39;72.33;95302.25;5006660;28;20029;-79
2021/11/22 05:08:58;;;;;;;79.70;31.42;;;;;;;0.42;72.56;95302.00;5006723;28;20025;-78
2021/11/22 05:11:24;;;;;;;92.55;36.22;;;;;;;0.45;72.86;95312.31;5005842;28;20033;-78
2021/11/22 05:13:49;;;;;;;90.53;36.08;;;;;;;0.38;73.24;95300.53;5006785;28;20625;-79
2021/11/22 05:16:15;;;;;;;92.45;37.95;;;;;;;0.41;72.64;95298.53;5004958;28;20053;-78
2021/11/22 05:18:40;;;;;;;90.35;38.10;;;;;;;0.48;72.98;95305.00;5006856;28;20029;-79
2021/11/22 05:21:06;;;;;;;94.10;40.15;;;;;;;0.50;73.00;95304.88;5005707;28;20041;-79
2021/11/22 05:23:31;;;;;;;91.63;38.33;;;;;;;0.45;72.86;95304.41;5005633;28;20463;-79
2021/11/22 05:25:56;;;;;;;89.85;36.33;;;;;;;0.42;72.99;95296.72;5005171;28;20080;-78
2021/11/22 05:28:22;;;;;;;104.55;42.90;;;;;;;0.41;72.75;95300.31;5006381;28;20037;-78
2021/11/22 05:30:47;;;;;;;116.30;47.80;;;;;;;0.38;73.51;95308.47;5006089;28;20037;-78
2021/11/22 05:33:13;;;;;;;116.13;45.42;;;;;;;0.44;73.44;95300.91;5005714;28;20053;-78
2021/11/22 05:35:38;;;;;;;96.30;39.83;;;;;;;0.70;70.09;95313.06;5006045;28;20026;-77
2021/11/22 05:38:04;;;;;;;115.18;41.08;;;;;;;0.50;70.86;95312.78;4999325;28;20037;-78
2021/11/22 05:40:29;;;;;;;112.50;45.70;;;;;;;0.25;72.46;95322.59;5003924;28;20513;-79
2021/11/22 05:42:55;;;;;;;112.95;44.30;;;;;;;0.28;72.96;95327.63;5001670;28;20033;-77
2021/11/22 05:45:20;;;;;;;101.95;44.45;;;;;;;0.34;72.20;95331.59;5001055;28;20037;-77
2021/11/22 05:47:47;;;;;;;102.35;42.30;;;;;;;0.35;72.12;95334.16;5004998;28;20030;-78
2021/11/22 05:50:12;;;;;;;114.50;42.88;;;;;;;0.21;73.57;95324.63;5005676;28;20025;-79
2021/11/22 05:52:38;;;;;;;102.90;40.83;;;;;;;0.15;74.25;95334.78;5007426;28;20033;-79
2021/11/22 05:55:06;;;;;;;105.50;41.08;;;;;;;0.10;74.60;95328.06;5001128;28;20057;-77
2021/11/22 05:57:31;;;;;;;106.72;39.42;;;;;;;0.11;74.39;95339.47;5007923;28;20037;-78
2021/11/22 05:59:57;;;;;;;100.28;39.17;;;;;;;0.20;74.73;95330.00;4990009;28;20033;-77
2021/11/22 06:02:22;;;;;;;85.05;36.90;;;;;;;0.33;74.21;95341.31;5008909;28;20406;-77
2021/11/22 06:04:48;;;;;;;105.00;38.42;;;;;;;0.31;74.13;95335.31;5006890;28;20033;-77
2021/11/22 06:07:13;;;;;;;92.75;38.80;;;;;;;0.35;74.26;95338.56;5007998;28;20493;-77
2021/11/22 06:09:39;;;;;;;92.55;37.22;;;;;;;0.15;74.60;95335.63;5007286;28;20034;-75
2021/11/22 06:12:05;;;;;;;91.60;37.47;;;;;;;-0.02;76.07;95342.16;5006253;28;20497;-75
2021/11/22 06:14:30;;;;;;;80.57;35.08;;;;;;;0.14;76.06;95347.16;5007269;28;20424;-77
2021/11/22 06:16:56;;;;;;;79.60;36.05;;;;;;;0.31;76.13;95359.06;5004645;28;20030;-77
2021/11/22 06:19:21;;;;;;;88.07;38.38;;;;;;;0.43;75.63;95353.81;4999023;28;20060;-76
2021/11/22 06:21:48;;;;;;;86.30;36.42;;;;;;;0.54;75.56;95364.41;4995029;28;20030;-80
2021/11/22 06:24:15;;;;;;;84.10;35.17;;;;;;;0.70;75.25;95361.44;4994718;28;20044;-79
2021/11/22 06:26:41;;;;;;;86.43;35.30;;;;;;;0.73;74.90;95358.56;4999780;28;20033;-78
2021/11/22 06:29:08;;;;;;;78.07;35.22;;;;;;;0.70;75.35;95352.66;5007254;28;20033;-78
2021/11/22 06:31:34;;;;;;;89.40;34.83;;;;;;;0.71;75.01;95347.25;5007907;28;20026;-79
2021/11/22 06:33:59;;;;;;;84.55;36.83;;;;;;;0.84;74.79;95349.81;5006738;28;20042;-79
2021/11/22 06:36:25;;;;;;;71.13;31.25;;;;;;;1.02;74.59;95351.13;5008227;28;20021;-78
2021/11/22 06:38:50;;;;;;;67.22;31.63;;;;;;;0.99;74.82;95352.22;5005172;28;20033;-77
2021/11/22 06:41:15;;;;;;;69.00;31.63;;;;;;;1.16;72.50;95361.44;5006064;28;20029;-78
2021/11/22 06:43:41;;;;;;;73.60;34.22;;;;;;;1.13;72.56;95356.41;5005252;28;20022;-79
2021/11/22 06:46:06;;;;;;;75.65;35.20;;;;;;;1.09;73.07;95357.63;5006780;28;20034;-78
2021/11/22 06:48:32;;;;;;;90.15;36.83;;;;;;;1.16;72.16;95361.44;5007540;28;20064;-80
2021/11/22 06:50:57;;;;;;;82.70;36.72;;;;;;;1.20;71.77;95359.41;5006043;28;20034;-78
2021/11/22 06:53:23;;;;;;;77.43;36.95;;;;;;;1.20;72.32;95360.25;5008432;28;20512;-78
2021/11/22 06:55:49;;;;;;;94.10;39.88;;;;;;;1.17;71.73;95357.00;5007161;28;20473;-78
2021/11/22 06:58:15;;;;;;;96.05;42.03;;;;;;;1.10;72.73;95370.72;4989940;28;20026;-77
2021/11/22 07:00:40;;;;;;;90.22;40.30;;;;;;;1.08;73.42;95367.34;5005842;28;20053;-78
2021/11/22 07:03:06;;;;;;;103.68;43.95;;;;;;;1.09;73.06;95369.03;5005712;28;20096;-79
2021/11/22 07:05:31;;;;;;;112.07;45.17;;;;;;;1.09;72.01;95366.41;5007230;28;20448;-78
2021/11/22 07:07:58;;;;;;;98.93;43.53;;;;;;;1.13;72.17;95380.19;5005839;28;20034;-79
2021/11/22 07:10:23;;;;;;;95.63;42.45;;;;;;;1.11;72.35;95369.75;5007422;28;20029;-78
2021/11/22 07:12:50;;;;;;;92.20;42.42;;;;;;;1.28;72.32;95362.28;5005959;28;20555;-79
2021/11/22 07:15:20;;;;;;;94.43;41.92;;;;;;;1.31;72.84;95369.97;5007907;28;20409;-78
2021/11/22 07:17:45;;;;;;;101.60;44.67;;;;;;;1.30;73.57;95370.94;5007395;28;20033;-78
2021/11/22 07:20:11;;;;;;;104.55;43.95;;;;;;;1.42;72.74;95373.59;5007966;28;20400;-78
2021/11/22 07:22:36;;;;;;;102.07;44.40;;;;;;;1.57;72.42;95367.06;5005988;28;20485;-80
2021/11/22 07:25:03;;;;;;;91.65;43.05;;;;;;;1.72;71.75;95370.31;5006271;28;20100;-78
2021/11/22 07:27:28;;;;;;;95.97;42.40;;;;;;;1.89;71.48;95369.88;5007367;28;20034;-78
2021/11/22 07:29:54;;;;;;;105.65;43.47;;;;;;;1.98;71.64;95364.66;5007412;28;20451;-79
2021/11/22 07:32:20;;;;;;;99.65;42.22;;;;;;;2.18;70.58;95364.00;5007561;28;20516;-78
2021/11/22 07:34:45;;;;;;;93.45;42.65;;;;;;;2.21;71.00;95363.75;5007621;28;20096;-79
2021/11/22 07:37:11;;;;;;;91.25;41.25;;;;;;;2.38;70.63;95354.41;5007972;28;20503;-78
2021/11/22 07:39:36;;;;;;;95.07;44.30;;;;;;;2.47;70.14;95352.78;5007032;28;20458;-78
2021/11/22 07:42:02;;;;;;;103.95;42.92;;;;;;;2.62;69.92;95355.13;5006477;28;20580;-80
2021/11/22 07:44:27;;;;;;;88.20;43.58;;;;;;;2.72;69.73;95361.34;5007039;28;20038;-79
2021/11/22 07:46:54;;;;;;;98.55;45.72;;;;;;;2.84;69.59;95349.69;5007177;28;20088;-78
2021/11/22 07:49:19;;;;;;;98.13;45.08;;;;;;;2.98;69.40;95355.63;5007420;28;20522;-78
2021/11/22 07:51:45;;;;;;;110.82;49.05;;;;;;;3.09;69.62;95358.16;5006561;28;20041;-77
2021/11/22 07:54:11;;;;;;;120.43;54.78;;;;;;;3.20;69.24;95357.25;5007392;28;20029;-80
2021/11/22 07:56:36;;;;;;;114.20;50.63;;;;;;;3.37;68.91;95359.41;5006191;28;20125;-79
2021/11/22 07:59:02;;;;;;;101.65;49.13;;;;;;;3.41;69.29;95351.06;5006079;28;20033;-79
2021/11/22 08:01:27;;;;;;;110.13;50.03;;;;;;;3.51;68.99;95351.09;5006465;28;20018;-79
2021/11/22 08:03:53;;;;;;;106.53;49.13;;;;;;;3.64;68.61;95355.31;5005691;28;20115;-77
2021/11/22 08:06:19;;;;;;;101.68;46.80;;;;;;;3.80;68.30;95349.47;5007094;28;20021;-80
2021/11/22 08:08:45;;;;;;;101.68;45.42;;;;;;;3.89;68.42;95347.81;5005476;28;20045;-78
2021/11/22 08:13:38;;;;;;;100.88;53.15;;;;;;;4.15;67.68;95344.63;5005607;28;20084;-80
2021/11/22 08:16:05;;;;;;;99.32;50.35;;;;;;;4.22;68.01;95345.75;5007088;28;20669;-78
2021/11/22 08:18:31;;;;;;;102.63;52.90;;;;;;;4.23;67.77;95350.06;5005907;28;20564;-78
2021/11/22 08:20:57;;;;;;;102.63;53.90;;;;;;;4.27;67.57;95346.16;5005992;28;20030;-78
2021/11/22 08:23:22;;;;;;;110.82;56.53;;;;;;;4.36;67.82;95348.94;5006503;28;20026;-78
2021/11/22 08:25:49;;;;;;;102.15;54.47;;;;;;;4.44;67.83;95351.75;5006674;28;20041;-78
2021/11/22 08:28:15;;;;;;;97.75;48.95;;;;;;;4.56;67.13;95360.41;5007052;28;20032;-78
2021/11/22 08:30:41;;;;;;;96.00;47.72;;;;;;;4.65;66.78;95348.09;5005861;28;20083;-77
2021/11/22 08:33:06;;;;;;;91.43;44.80;;;;;;;4.69;66.59;95350.31;5006141;28;20096;-77
2021/11/22 08:35:31;;;;;;;88.47;45.47;;;;;;;4.78;66.44;95348.63;5005715;28;20029;-78
2021/11/22 08:37:58;;;;;;;95.88;45.22;;;;;;;4.89;66.67;95344.13;5006481;28;20030;-78
2021/11/22 08:40:25;;;;;;;99.65;46.00;;;;;;;4.98;66.30;95337.13;4988555;28;20058;-77
2021/11/22 08:42:51;;;;;;;89.80;44.92;;;;;;;5.02;66.81;95341.16;5005370;28;20443;-78
2021/11/22 08:45:17;;;;;;;92.55;45.38;;;;;;;5.17;66.25;95331.75;5005555;28;20022;-78
2021/11/22 08:47:42;;;;;;;94.28;43.60;;;;;;;5.29;66.84;95329.72;5005984;28;20052;-78
2021/11/22 08:50:08;;;;;;;80.25;41.90;;;;;;;5.35;67.58;95335.44;5006774;28;20018;-79
2021/11/22 08:52:33;;;;;;;99.93;44.13;;;;;;;5.45;66.95;95328.22;5005304;28;20030;-78
2021/11/22 08:54:59;;;;;;;108.45;45.20;;;;;;;5.53;66.79;95328.34;5006809;28;20516;-78
2021/11/22 08:57:25;;;;;;;88.47;45.35;;;;;;;5.53;66.56;95328.34;5004787;28;20424;-77
2021/11/22 08:59:50;;;;;;;96.57;46.05;;;;;;;5.56;66.80;95336.03;5005198;28;20032;-78
2021/11/22 09:02:16;;;;;;;84.18;45.45;;;;;;;5.67;65.85;95337.63;5004786;28;20091;-78
2021/11/22 09:04:41;;;;;;;80.40;43.58;;;;;;;5.79;65.46;95338.28;5005798;28;20030;-77
2021/11/22 09:07:08;;;;;;;86.15;45.92;;;;;;;5.88;65.93;95330.38;5006506;28;20034;-78
2021/11/22 09:09:34;;;;;;;78.38;44.17;;;;;;;5.97;65.70;95325.97;5005754;28;20037;-79
2021/11/22 09:11:59;;;;;;;74.47;42.90;;;;;;;6.03;65.56;95326.22;5005578;28;20022;-79
2021/11/22 09:14:24;;;;;;;85.03;42.53;;;;;;;6.16;65.21;95327.69;5005729;28;20088;-78
2021/11/22 09:16:50;;;;;;;83.60;44.35;;;;;;;6.23;64.82;95326.09;5006777;28;20025;-79
2021/11/22 09:19:15;;;;;;;82.00;43.30;;;;;;;6.34;64.81;95329.50;5005915;28;20126;-78
2021/11/22 09:21:41;;;;;;;79.07;42.45;;;;;;;6.40;65.20;95323.59;5004928;28;20026;-79
2021/11/22 09:24:07;;;;;;;81.93;45.45;;;;;;;6.47;64.88;95319.31;5005013;28;20055;-77
2021/11/22 09:26:33;;;;;;;80.43;45.53;;;;;;;6.54;65.20;95316.88;5007233;28;20053;-77
2021/11/22 09:28:58;;;;;;;76.65;42.55;;;;;;;6.60;65.10;95312.72;5009939;28;20412;-80
2021/11/22 09:31:24;;;;;;;82.93;44.67;;;;;;;6.66;65.04;95309.44;5009352;28;20037;-78
2021/11/22 09:33:51;;;;;;;71.60;41.83;;;;;;;6.73;64.91;95305.19;5008633;28;20124;-78
2021/11/22 09:36:16;;;;;;;78.45;43.30;;;;;;;6.83;64.68;95307.75;5009300;28;20028;-79
2021/11/22 09:38:42;;;;;;;76.35;43.30;;;;;;;6.93;64.19;95308.47;5008669;28;20029;-81
2021/11/22 09:41:07;;;;;;;79.50;42.17;;;;;;;7.03;64.09;95303.03;5008167;28;20033;-79
2021/11/22 09:43:33;;;;;;;72.45;40.58;;;;;;;7.08;63.73;95301.72;5009711;28;20113;-78
2021/11/22 09:45:59;;;;;;;74.13;40.60;;;;;;;7.15;63.67;95302.75;5009472;28;20385;-79
2021/11/22 09:48:25;;;;;;;74.68;40.83;;;;;;;7.23;63.89;95297.47;5009356;28;20046;-79
2021/11/22 09:50:50;;;;;;;73.82;38.33;;;;;;;7.32;63.44;95287.66;5008511;28;20026;-79
2021/11/22 09:53:16;;;;;;;65.75;38.38;;;;;;;7.39;63.71;95280.69;5008850;28;20026;-81
2021/11/22 09:55:42;;;;;;;69.72;39.00;;;;;;;7.47;63.40;95282.56;5010168;28;20029;-78
2021/11/22 09:58:08;;;;;;;67.03;36.20;;;;;;;7.52;63.48;95285.56;5008614;28;20537;-77
2021/11/22 10:00:41;;;;;;;79.03;37.20;;;;;;;7.65;63.37;95287.78;5009894;28;20033;-78
2021/11/22 10:03:11;;;;;;;61.60;34.58;;;;;;;7.69;63.14;95282.94;5009181;28;20030;-79
2021/11/22 10:05:36;;;;;;;62.92;35.00;;;;;;;7.71;63.29;95272.94;5009158;28;20026;-80
2021/11/22 10:08:09;;;;;;;55.83;30.30;;;;;;;7.79;63.27;95262.28;5008300;28;20029;-79
2021/11/22 10:10:37;;;;;;;47.70;28.20;;;;;;;7.87;62.95;95268.63;5008564;28;20022;-80
2021/11/22 10:13:23;;;;;;;49.45;30.80;;;;;;;7.92;62.83;95271.66;5009331;28;20543;-79
2021/11/22 10:15:50;;;;;;;55.17;29.15;;;;;;;7.99;62.36;95258.47;5007941;28;20488;-78
2021/11/22 10:18:27;;;;;;;45.75;28.35;;;;;;;8.06;62.35;95262.13;5007863;28;20033;-79
2021/11/22 10:20:53;;;;;;;46.80;26.02;;;;;;;8.08;62.47;95253.97;5007961;28;20056;-78
2021/11/22 10:23:26;;;;;;;53.80;26.58;;;;;;;8.15;62.28;95244.28;4990716;28;20037;-79
2021/11/22 10:25:53;;;;;;;45.17;26.88;;;;;;;8.24;62.38;95248.63;5009913;28;20052;-79
2021/11/22 10:28:26;;;;;;;42.92;27.90;;;;;;;8.28;62.19;95238.47;5006943;28;20030;-79
2021/11/22 10:30:57;;;;;;;50.22;28.48;;;;;;;8.35;61.70;95241.31;5007914;28;20058;-79
2021/11/22 10:33:29;;;;;;;46.45;27.60;;;;;;;8.41;61.76;95238.75;5009264;28;20154;-79
2021/11/22 10:35:59;;;;;;;42.00;26.33;;;;;;;8.56;61.70;95235.44;5008397;28;20103;-77
2021/11/22 10:38:29;;;;;;;45.47;25.98;;;;;;;8.48;61.65;95227.44;5008361;28;20042;-78
2021/11/22 10:40:57;;;;;;;46.38;27.83;;;;;;;8.46;61.55;95237.44;5009003;28;20489;-77
2021/11/22 10:43:23;;;;;;;39.72;25.13;;;;;;;8.53;62.13;95243.78;5009419;28;20105;-78
2021/11/22 10:45:50;;;;;;;48.42;26.17;;;;;;;8.60;62.56;95239.47;5009404;28;20071;-77
2021/11/22 10:48:27;;;;;;;41.08;23.73;;;;;;;8.66;62.27;95232.59;5009365;28;20029;-77
2021/11/22 10:51:11;;;;;;;43.67;27.17;;;;;;;8.72;62.66;95229.22;5009576;28;20515;-78
2021/11/22 10:53:45;;;;;;;41.67;26.42;;;;;;;8.79;62.09;95229.41;5008977;28;20025;-78
2021/11/22 10:56:15;;;;;;;50.40;29.67;;;;;;;8.82;61.44;95228.22;5007754;28;20501;-78
2021/11/22 10:58:48;;;;;;;49.85;28.60;;;;;;;8.90;61.29;95225.50;5008302;28;20033;-79
2021/11/22 11:01:21;;;;;;;47.80;29.25;;;;;;;8.98;61.03;95227.34;5007480;28;20026;-78
2021/11/22 11:03:55;;;;;;;54.65;29.55;;;;;;;9.06;60.93;95218.47;5008465;28;20409;-79
2021/11/22 11:06:32;;;;;;;49.55;29.00;;;;;;;9.11;60.99;95224.09;5006401;28;20499;-79
2021/11/22 11:09:00;;;;;;;48.63;29.25;;;;;;;9.19;61.01;95224.06;5007863;28;20116;-79
2021/11/22 11:11:25;;;;;;;48.92;28.77;;;;;;;9.25;60.34;95222.56;4989757;28;20087;-78
2021/11/22 11:13:51;;;;;;;54.72;30.00;;;;;;;9.30;60.13;95227.41;5007495;28;20046;-80
2021/11/22 11:16:16;;;;;;;51.65;31.55;;;;;;;9.38;60.18;95222.00;4989720;28;20030;-78
2021/11/22 11:18:59;;;;;;;48.75;28.95;;;;;;;9.46;60.53;95215.78;5008154;28;20022;-80
2021/11/22 11:21:26;;;;;;;40.28;26.63;;;;;;;9.48;60.50;95219.94;5008256;28;20034;-79
2021/11/22 11:23:52;;;;;;;47.90;26.83;;;;;;;9.54;60.53;95220.25;5006480;28;20404;-78